• Join FlightAware (Why Join?)
  • Login
  • US Flag 
Rudolph Flight #1: Arrived! 
02:34AM EST


 

Airport Tracker/Info


-or-


 

Live Flight TrackerFlight Track Log ✈ SWA1377 ✈ 22-Apr-2013 ✈ KBUF - KBWI

Flight Track Log - Related Links

Times and Time Zones

All times are in EDT time to prevent confusion due to time zone crossing. See the SWA1377 flight status page for this flight to view local times or setup timezone preferences in your user account.

Time Position Orientation Groundspeed Altitude Reporting Facility
EDT Latitude Longitude Course Direction KTS MPH feet Rate Location/Type
12:26PM 42.8292 -78.7489 187° South 231 266 6,700  Level Cleveland Center
12:27PM 42.7603 -78.7339 171° South 247 284 9,700 2,640 Climbing Cleveland Center
12:28PM 42.6744 -78.7164 171° South 279 321 12,000 3,000 Climbing Cleveland Center
12:29PM 42.5700 -78.7028 175° South 336 387 15,700 3,840 Climbing Cleveland Center
12:30PM 42.4653 -78.6806 171° South 374 430 19,800 3,900 Climbing Cleveland Center
12:31PM 42.3650 -78.6667 174° South 379 436 23,600 2,580 Climbing Cleveland Center
12:32PM 42.2606 -78.6500 173° South 379 436 25,000 660 Climbing Cleveland Center
12:33PM 42.1414 -78.6203 170° South 401 461 25,000  Level Cleveland Center
12:34PM 42.0372 -78.5172 144° Southeast 424 488 25,000  Level Cleveland Center
12:35PM 41.9417 -78.4169 142° Southeast 438 504 25,000  Level Cleveland Center
12:36PM 41.8436 -78.3114 141° Southeast 445 512 25,000  Level Cleveland Center
12:39PM 41.5919 -78.0522 142° Southeast 456 525 25,000  Level New York Center
12:40PM 41.4942 -77.9475 141° Southeast 461 531 25,000  Level New York Center
12:41PM 41.4275 -77.8433 130° Southeast 461 531 25,000 -1,320 Level New York Center
12:42PM 41.3375 -77.7069 131° Southeast 456 525 22,400 -2,580 Descending New York Center
12:43PM 41.2592 -77.5856 131° Southeast 446 513 19,800 -1,800 Descending New York Center
12:44PM 41.1822 -77.4703 132° Southeast 428 493 18,800 -840 Descending New York Center
12:45PM 41.0975 -77.3464 132° Southeast 423 487 18,200 -780 Descending New York Center
12:46PM 41.0225 -77.2317 131° Southeast 418 481 17,300 -960 Descending New York Center
12:47PM 40.9472 -77.1228 132° Southeast 412 474 16,300 -1,020 Descending New York Center
12:48PM 40.8739 -77.0117 131° Southeast 406 467 15,300 -720 Descending New York Center
12:49PM 40.8103 -76.9156 131° Southeast 396 456 15,000 -180 Descending New York Center
12:50PM 40.7222 -76.8033 136° Southeast 396 456 15,000  Level New York Center
12:51PM 40.6417 -76.7089 138° Southeast 396 456 15,000  Level New York Center
12:52PM 40.5631 -76.6092 136° Southeast 396 456 15,000  Level New York Center
12:53PM 40.5056 -76.5061 126° Southeast 391 450 15,000  Level New York Center
12:54PM 40.4403 -76.3914 127° Southeast 391 450 15,000  Level New York Center
12:55PM 40.3556 -76.2864 137° Southeast 391 450 15,000 -480 Level New York Center
12:56PM 40.2536 -76.2811 178° South 361 415 14,100 -1,200 Descending New York Center
12:57PM 40.1594 -76.2900 184° South 368 423 12,700 -840 Descending New York Center
12:59PM 39.9667 -76.3000 182° South 357 411 11,900 -300 Descending Potomac TRACON
01:00PM 39.8833 -76.3000 180° South 287 330 11,900 -600 Level Potomac TRACON
01:01PM 39.8167 -76.3667 218° Southwest 279 321 10,800 -1,380 Descending Potomac TRACON
01:02PM 39.7500 -76.4167 210° Southwest 276 318 9,200 -1,620 Descending Potomac TRACON
01:03PM 39.7000 -76.4667 218° Southwest 272 313 7,600 -1,620 Descending Potomac TRACON
01:04PM 39.6333 -76.5333 218° Southwest 271 312 6,000 -1,380 Descending Potomac TRACON
01:05PM 39.5667 -76.5667 201° Southwest 267 307 5,000 -1,080 Descending Potomac TRACON
01:06PM 39.5167 -76.6333 226° Southwest 264 304 4,000 -540 Descending Potomac TRACON
01:07PM 39.4500 -76.6833 210° Southwest 257 296 4,000 -180 Level Potomac TRACON
01:08PM 39.3833 -76.7333 210° Southwest 252 290 3,700 -660 Descending Potomac TRACON
01:09PM 39.3333 -76.7833 218° Southwest 247 284 2,700 -840 Descending Potomac TRACON
01:10PM 39.2667 -76.8000 191° South 217 250 2,200 -540 Descending Potomac TRACON
01:10PM 39.2167 -76.8000 180° South 190 219 1,800 -420 Descending Potomac TRACON
01:11PM 39.1833 -76.7667 142° Southeast 158 182 1,400 -540 Descending Potomac TRACON
01:13PM 39.1833 -76.7167 90° East 123 142 700 -660 Descending Potomac TRACON
01:15PM 39.1667 -76.6667 270° West  Level FlightAware Approximate
01:22PM 39.1754 -76.6683 270° West  Level Estimated
01:23PM 39.1754 -76.6683 270° West  Level Estimated